Terminal Aerodrome Forecast
Issued by NWS

Home | Current Version | Previous Version | Graphics & Text | Print | Product List | Glossary On
Versions: 1 2 3 4 5 6 7 8 9 10 11 12 13 14 15 16 17 18
000
FTUS43 KGRB 230742 AAB
TAFCWA
TAF AMD
KCWA 230742Z 2308/2406 12010KT 3SM -FZDZ BR OVC005 WS020/16035KT
      TEMPO 2308/2312 1SM -FZRAPL BR
     FM231400 23005KT 4SM -FZDZ BR OVC006
     FM231600 27008G16KT P6SM OVC009
     FM232100 29007KT P6SM BKN011
     FM240300 30004KT P6SM SCT016
      AMD LTD TO CLD VIS AND WIND TIL 231200=

USA.gov is the U.S. government's official web portal to all federal, state and local government web resources and services.